Time;durP1;ratioP1;P1;durP2;ratioP2;P2;SDS_P1;SDS_P2;PMS_P1;PMS_P2;Temp;Humidity;BMP_temperature;BMP_pressure;BME280_temperature;BME280_humidity;BME280_pressure;Samples;Min_cycle;Max_cycle;Signal;HPM_P1;HPM_P2
2022/07/23 00:02:09;;;;;;;2.97;1.67;;;15.70;99.90;;;;;;5139654;27;20034;-81
2022/07/23 00:04:34;;;;;;;3.23;1.60;;;15.60;99.90;;;;;;5122155;27;20042;-81
2022/07/23 00:07:00;;;;;;;2.77;1.70;;;15.70;99.90;;;;;;5157674;27;20036;-81
2022/07/23 00:09:26;;;;;;;5.10;1.90;;;15.70;99.90;;;;;;5121996;27;20095;-81
2022/07/23 00:11:51;;;;;;;2.67;1.70;;;15.60;99.90;;;;;;5139260;27;20146;-81
2022/07/23 00:14:17;;;;;;;2.63;1.60;;;15.60;99.90;;;;;;5157925;27;20546;-81
2022/07/23 00:16:43;;;;;;;5.20;1.73;;;15.60;99.90;;;;;;5158348;27;20035;-81
2022/07/23 00:19:08;;;;;;;3.67;1.60;;;15.60;99.90;;;;;;5157731;27;20038;-81
2022/07/23 00:21:34;;;;;;;4.33;1.50;;;15.50;99.90;;;;;;5157711;27;20037;-81
2022/07/23 00:24:00;;;;;;;3.90;1.60;;;15.50;99.90;;;;;;5157739;27;20045;-81
2022/07/23 00:26:25;;;;;;;3.80;1.67;;;15.50;99.90;;;;;;5121866;27;20383;-81
2022/07/23 00:28:51;;;;;;;3.33;1.67;;;15.40;99.90;;;;;;5138802;27;20038;-81
2022/07/23 00:31:16;;;;;;;3.95;1.63;;;15.40;99.90;;;;;;5138809;27;20034;-81
2022/07/23 00:33:42;;;;;;;4.50;1.53;;;15.40;99.90;;;;;;5157130;27;20045;-81
2022/07/23 00:36:08;;;;;;;4.83;1.80;;;15.30;99.90;;;;;;5139072;27;20042;-81
2022/07/23 00:38:33;;;;;;;3.83;2.10;;;15.30;99.90;;;;;;5157016;27;20042;-81
2022/07/23 00:40:59;;;;;;;4.03;2.10;;;15.20;99.90;;;;;;5138478;27;20041;-81
2022/07/23 00:43:24;;;;;;;3.75;1.98;;;15.20;99.90;;;;;;5157319;27;20109;-81
2022/07/23 00:45:50;;;;;;;9.80;2.80;;;15.20;99.90;;;;;;5138820;27;20087;-81
2022/07/23 00:48:16;;;;;;;6.43;2.80;;;15.20;99.90;;;;;;5138766;27;20031;-83
2022/07/23 00:50:43;;;;;;;3.57;2.60;;;15.10;99.90;;;;;;5157182;27;20035;-82
2022/07/23 00:53:08;;;;;;;;;;;15.00;99.90;;;;;;5157497;27;20087;-82
2022/07/23 00:55:34;;;;;;;5.38;2.30;;;15.00;99.90;;;;;;5157019;27;19918;-82
2022/07/23 00:58:01;;;;;;;3.07;2.00;;;15.00;99.90;;;;;;5156962;27;20110;-82
2022/07/23 01:00:27;;;;;;;;;;;14.90;99.90;;;;;;5157394;27;20038;-82
2022/07/23 01:02:52;;;;;;;4.57;2.53;;;14.80;99.90;;;;;;5121257;27;19929;-82
2022/07/23 01:05:21;;;;;;;6.43;2.20;;;14.80;99.90;;;;;;5156588;27;20041;-82
2022/07/23 01:07:51;;;;;;;5.10;2.25;;;14.80;99.90;;;;;;5156787;27;20087;-82
2022/07/23 01:10:31;;;;;;;5.75;2.50;;;14.70;99.90;;;;;;5138880;27;20031;-82
2022/07/23 01:13:15;;;;;;;3.97;2.40;;;14.70;99.90;;;;;;5137685;27;20388;-82
2022/07/23 01:15:41;;;;;;;4.68;2.70;;;14.70;99.90;;;;;;5156702;27;20431;-82
2022/07/23 01:18:07;;;;;;;5.50;2.67;;;14.70;99.90;;;;;;5156543;27;20035;-82
2022/07/23 01:20:34;;;;;;;4.63;2.75;;;14.70;99.90;;;;;;5137697;27;20371;-82
2022/07/23 01:22:59;;;;;;;3.30;2.92;;;14.70;99.90;;;;;;5156479;27;20435;-82
2022/07/23 01:25:25;;;;;;;6.03;3.33;;;14.70;99.90;;;;;;5120462;27;20121;-82
2022/07/23 01:27:52;;;;;;;4.87;2.60;;;14.70;99.90;;;;;;5156428;27;20042;-82
2022/07/23 01:30:18;;;;;;;5.35;3.10;;;14.70;99.90;;;;;;5156319;27;20126;-82
2022/07/23 01:32:44;;;;;;;4.90;3.50;;;14.70;99.90;;;;;;5156200;27;20475;-82
2022/07/23 01:35:10;;;;;;;6.27;3.20;;;14.70;99.90;;;;;;5156204;27;20062;-82
2022/07/23 01:37:36;;;;;;;5.30;3.25;;;14.70;99.90;;;;;;5120398;27;20031;-80
2022/07/23 01:40:02;;;;;;;5.45;3.42;;;14.70;99.90;;;;;;5137418;27;20039;-81
2022/07/23 01:42:28;;;;;;;7.38;3.42;;;14.70;99.90;;;;;;5137373;27;20527;-81
2022/07/23 01:44:53;;;;;;;5.57;3.90;;;14.70;99.90;;;;;;5137596;27;20031;-81
2022/07/23 01:47:19;;;;;;;5.70;3.30;;;14.70;99.90;;;;;;5156106;27;20387;-81
2022/07/23 01:49:44;;;;;;;3.87;3.40;;;14.70;99.90;;;;;;5155982;27;20039;-80
2022/07/23 01:52:10;;;;;;;4.80;3.30;;;14.70;99.90;;;;;;5156010;27;20039;-81
2022/07/23 01:54:37;;;;;;;8.13;3.63;;;14.70;99.90;;;;;;5138070;27;20042;-81
2022/07/23 01:57:03;;;;;;;4.82;3.53;;;14.70;99.90;;;;;;5155571;27;20074;-81
2022/07/23 01:59:29;;;;;;;4.63;3.63;;;14.70;99.90;;;;;;5155516;27;20121;-81
2022/07/23 02:01:55;;;;;;;6.83;3.97;;;14.70;99.90;;;;;;5137161;27;20031;-81
2022/07/23 02:04:22;;;;;;;5.73;3.33;;;14.70;99.90;;;;;;5155677;27;20539;-81
2022/07/23 02:06:48;;;;;;;5.72;3.38;;;14.70;99.90;;;;;;5155800;27;20041;-80
2022/07/23 02:09:14;;;;;;;5.13;3.60;;;14.60;99.90;;;;;;5155669;27;20035;-81
2022/07/23 02:11:39;;;;;;;6.77;3.53;;;14.60;99.90;;;;;;5155437;27;20111;-81
2022/07/23 02:14:05;;;;;;;6.07;3.30;;;14.80;99.90;;;;;;5155212;27;20043;-82
2022/07/23 02:16:30;;;;;;;6.30;3.27;;;14.60;99.90;;;;;;5154918;27;20042;-82
2022/07/23 02:18:56;;;;;;;7.63;3.50;;;14.60;99.90;;;;;;5119889;27;20070;-81
2022/07/23 02:21:21;;;;;;;5.03;3.60;;;14.50;99.90;;;;;;5155481;27;20514;-82
2022/07/23 02:23:47;;;;;;;4.20;3.00;;;14.50;99.90;;;;;;5155571;27;20395;-81
2022/07/23 02:26:13;;;;;;;4.93;3.20;;;14.50;99.90;;;;;;5137070;27;20078;-82
2022/07/23 02:28:38;;;;;;;4.23;2.90;;;14.60;99.90;;;;;;5136613;27;20039;-82
2022/07/23 02:31:05;;;;;;;5.00;3.40;;;14.40;99.90;;;;;;5136863;27;20091;-82
2022/07/23 02:33:30;;;;;;;4.22;2.95;;;14.30;99.90;;;;;;5155076;27;20387;-82
2022/07/23 02:35:56;;;;;;;5.30;3.00;;;14.30;99.90;;;;;;5155344;27;20050;-82
2022/07/23 02:38:22;;;;;;;4.17;3.37;;;14.20;99.90;;;;;;5155281;27;20045;-82
2022/07/23 02:40:47;;;;;;;4.57;3.60;;;14.20;99.90;;;;;;5136578;27;20045;-81
2022/07/23 02:43:13;;;;;;;7.47;3.70;;;14.20;99.90;;;;;;5136628;27;20175;-81
2022/07/23 02:45:38;;;;;;;5.00;3.50;;;14.10;99.90;;;;;;5136702;27;20042;-82
2022/07/23 02:48:04;;;;;;;4.95;3.60;;;14.10;99.90;;;;;;5154980;27;20035;-82
2022/07/23 02:50:30;;;;;;;4.97;3.60;;;14.00;99.90;;;;;;5155237;27;20031;-82
2022/07/23 02:52:55;;;;;;;4.13;3.43;;;14.00;99.90;;;;;;5154911;27;20030;-82
2022/07/23 02:55:21;;;;;;;4.40;3.73;;;14.00;99.90;;;;;;5119429;27;20115;-82
2022/07/23 02:57:46;;;;;;;6.80;3.80;;;13.90;99.90;;;;;;5136771;27;20088;-82
2022/07/23 03:00:12;;;;;;;5.80;3.27;;;13.90;99.90;;;;;;5155092;27;20067;-82
2022/07/23 03:02:38;;;;;;;6.13;3.78;;;13.80;99.90;;;;;;5154949;27;20062;-84
2022/07/23 03:05:04;;;;;;;5.97;3.70;;;13.80;99.90;;;;;;5136312;27;20375;-82
2022/07/23 03:07:30;;;;;;;5.23;3.60;;;13.80;99.90;;;;;;5154844;27;20049;-83
2022/07/23 03:09:55;;;;;;;5.82;3.83;;;13.80;99.90;;;;;;5136658;27;20168;-85
2022/07/23 03:12:21;;;;;;;5.53;3.77;;;13.70;99.90;;;;;;5154721;27;20534;-81
2022/07/23 03:14:46;;;;;;;3.83;3.42;;;13.70;99.90;;;;;;5155062;27;20387;-81
2022/07/23 03:17:12;;;;;;;4.45;3.47;;;13.60;99.90;;;;;;5136442;27;20114;-82
2022/07/23 03:19:38;;;;;;;4.80;3.42;;;13.60;99.90;;;;;;5154914;27;20613;-81
2022/07/23 03:22:04;;;;;;;6.10;3.53;;;13.60;99.90;;;;;;5154743;27;20492;-84
2022/07/23 03:27:14;;;;;;;4.72;3.50;;;13.50;99.90;;;;;;5155745;27;20416;-81
2022/07/23 03:29:40;;;;;;;5.03;3.40;;;13.50;99.90;;;;;;5139997;27;20034;-82
2022/07/23 03:32:06;;;;;;;6.13;3.83;;;13.40;99.90;;;;;;5158715;27;20035;-81
2022/07/23 03:34:31;;;;;;;5.07;3.40;;;13.40;99.90;;;;;;5158336;27;20109;-82
2022/07/23 03:36:57;;;;;;;4.78;3.60;;;13.40;99.90;;;;;;5158497;27;20034;-80
2022/07/23 03:39:22;;;;;;;4.82;3.40;;;13.30;99.90;;;;;;5158573;27;20539;-81
2022/07/23 03:41:48;;;;;;;5.43;3.37;;;13.30;99.90;;;;;;5122788;27;20066;-83
2022/07/23 03:44:14;;;;;;;9.57;4.18;;;13.30;99.90;;;;;;5158100;27;20127;-83
2022/07/23 03:46:39;;;;;;;4.43;4.03;;;13.30;99.90;;;;;;5158399;27;20057;-84
2022/07/23 03:49:05;;;;;;;6.40;4.15;;;13.30;99.90;;;;;;5158336;27;20031;-83
2022/07/23 03:51:30;;;;;;;5.57;3.75;;;13.20;99.90;;;;;;5158421;27;20031;-82
2022/07/23 03:53:56;;;;;;;7.70;4.20;;;13.20;99.90;;;;;;5158200;27;20074;-81
2022/07/23 03:56:22;;;;;;;7.15;4.53;;;13.20;99.90;;;;;;5139862;27;20093;-84
2022/07/23 03:58:47;;;;;;;5.65;4.10;;;13.20;99.90;;;;;;5139453;27;20061;-82
2022/07/23 04:01:13;;;;;;;6.40;4.20;;;13.10;99.90;;;;;;5158181;27;20035;-81
2022/07/23 04:03:39;;;;;;;6.30;4.57;;;13.10;99.90;;;;;;5158085;27;20034;-83
2022/07/23 04:06:05;;;;;;;6.60;4.70;;;13.10;99.90;;;;;;5139584;27;20042;-84
2022/07/23 04:08:31;;;;;;;6.10;4.80;;;13.10;99.90;;;;;;5158012;27;20039;-80
2022/07/23 04:10:57;;;;;;;6.47;4.95;;;13.10;99.90;;;;;;5158021;27;20391;-81
2022/07/23 04:13:23;;;;;;;5.60;5.00;;;13.10;99.90;;;;;;5157695;27;20055;-81
2022/07/23 04:15:49;;;;;;;6.53;4.88;;;13.10;99.90;;;;;;5157964;27;20050;-84
2022/07/23 04:18:17;;;;;;;6.00;5.40;;;13.10;99.90;;;;;;5157706;27;20046;-84
2022/07/23 04:20:43;;;;;;;7.10;5.38;;;13.10;99.90;;;;;;5157760;27;20034;-81
2022/07/23 04:23:09;;;;;;;6.50;4.85;;;13.10;99.90;;;;;;5157739;27;20042;-83
2022/07/23 04:25:35;;;;;;;5.13;4.63;;;13.10;99.90;;;;;;5138852;27;20386;-81
2022/07/23 04:28:01;;;;;;;8.07;4.87;;;13.10;99.90;;;;;;5157701;27;20418;-83
2022/07/23 04:30:27;;;;;;;6.55;5.13;;;13.10;99.90;;;;;;5138832;27;20027;-83
2022/07/23 04:32:52;;;;;;;5.23;4.73;;;13.10;99.90;;;;;;5157481;27;20467;-83
2022/07/23 04:35:18;;;;;;;4.90;4.30;;;13.10;99.90;;;;;;5157556;27;20045;-82
2022/07/23 04:37:44;;;;;;;8.00;4.63;;;13.10;99.90;;;;;;5157355;27;20026;-82
2022/07/23 04:40:11;;;;;;;5.43;4.30;;;13.10;99.90;;;;;;5156656;27;20045;-83
2022/07/23 04:42:36;;;;;;;6.22;5.10;;;13.10;99.90;;;;;;5157468;27;20351;-85
2022/07/23 04:45:03;;;;;;;5.83;4.63;;;13.10;99.90;;;;;;5157157;27;20045;-83
2022/07/23 04:47:29;;;;;;;6.35;5.15;;;13.20;99.90;;;;;;5157207;27;20038;-82
2022/07/23 04:49:55;;;;;;;5.80;4.95;;;13.20;99.90;;;;;;5156915;27;20542;-82
2022/07/23 04:52:20;;;;;;;5.88;5.13;;;13.20;99.90;;;;;;5157158;27;20047;-84
2022/07/23 04:54:46;;;;;;;11.95;6.20;;;13.20;99.90;;;;;;5157133;27;20030;-83
2022/07/23 04:57:11;;;;;;;8.93;5.75;;;13.20;99.90;;;;;;5138490;27;20229;-86
2022/07/23 04:59:37;;;;;;;7.65;5.38;;;13.20;99.90;;;;;;5138433;27;20035;-83
2022/07/23 05:02:03;;;;;;;7.30;5.93;;;13.80;99.90;;;;;;5156906;27;20042;-81
2022/07/23 05:04:28;;;;;;;6.53;5.72;;;13.30;99.90;;;;;;5156888;27;20407;-81
2022/07/23 05:06:54;;;;;;;7.32;5.97;;;13.30;99.90;;;;;;5156858;27;20541;-81
2022/07/23 05:09:19;;;;;;;8.03;5.03;;;13.30;99.90;;;;;;5137995;27;20478;-81
2022/07/23 05:11:45;;;;;;;10.43;5.78;;;13.30;99.90;;;;;;5138108;27;20086;-85
2022/07/23 05:14:12;;;;;;;7.57;5.40;;;13.30;99.90;;;;;;5156729;27;20043;-84
2022/07/23 05:16:38;;;;;;;;;;;13.40;99.90;;;;;;5138701;27;20071;-82
2022/07/23 05:19:03;;;;;;;9.57;5.80;;;13.40;99.90;;;;;;5156489;27;19919;-81
2022/07/23 05:21:29;;;;;;;6.85;5.25;;;13.40;99.90;;;;;;5138226;27;20460;-83
2022/07/23 05:23:54;;;;;;;7.70;5.43;;;13.40;99.90;;;;;;5156419;27;20091;-81
2022/07/23 05:26:20;;;;;;;6.47;5.80;;;13.50;99.90;;;;;;5156248;27;20035;-85
2022/07/23 05:28:45;;;;;;;8.52;5.22;;;13.50;99.90;;;;;;5156356;27;20043;-82
2022/07/23 05:31:11;;;;;;;6.93;5.13;;;13.50;99.90;;;;;;5156424;27;20109;-83
2022/07/23 05:33:37;;;;;;;8.13;5.13;;;13.60;99.90;;;;;;5120509;27;20034;-84
2022/07/23 05:36:03;;;;;;;8.48;4.65;;;13.60;99.90;;;;;;5156302;27;20070;-80
2022/07/23 05:38:29;;;;;;;6.03;4.38;;;13.60;99.90;;;;;;5155865;27;20174;-82
2022/07/23 05:40:55;;;;;;;7.73;4.87;;;13.70;99.90;;;;;;5137829;27;20031;-80
2022/07/23 05:43:21;;;;;;;5.35;4.25;;;13.70;99.90;;;;;;5156177;27;20038;-82
2022/07/23 05:45:46;;;;;;;6.95;4.50;;;13.80;99.90;;;;;;5155827;27;20038;-84
2022/07/23 05:48:12;;;;;;;6.72;4.13;;;14.00;99.90;;;;;;5156006;27;20034;-83
2022/07/23 05:50:38;;;;;;;7.53;4.20;;;14.20;99.90;;;;;;5155058;27;20091;-83
2022/07/23 05:53:04;;;;;;;6.05;3.40;;;14.40;99.90;;;;;;5155986;27;20042;-80
2022/07/23 05:55:31;;;;;;;4.97;4.00;;;14.60;99.90;;;;;;5155930;27;20485;-81
2022/07/23 05:57:57;;;;;;;6.03;3.90;;;14.80;99.90;;;;;;5137410;27;20079;-80
2022/07/23 06:00:24;;;;;;;6.05;3.78;;;15.00;99.90;;;;;;5155883;27;20440;-80
2022/07/23 06:02:50;;;;;;;6.18;3.40;;;15.30;99.90;;;;;;5155764;27;20039;-85
2022/07/23 06:05:16;;;;;;;6.50;3.80;;;15.60;99.90;;;;;;5155724;27;20031;-82
2022/07/23 06:07:42;;;;;;;6.25;3.67;;;15.80;99.90;;;;;;5155717;27;20665;-82
2022/07/23 06:10:08;;;;;;;6.07;3.70;;;16.10;99.90;;;;;;5155749;27;20078;-80
2022/07/23 06:12:33;;;;;;;5.50;3.70;;;16.30;99.90;;;;;;5155183;27;20483;-82
2022/07/23 06:14:59;;;;;;;5.33;3.40;;;16.50;99.90;;;;;;5155629;27;20046;-77
2022/07/23 06:17:25;;;;;;;6.43;3.50;;;16.70;99.90;;;;;;5155602;27;20034;-82
2022/07/23 06:19:50;;;;;;;3.60;3.00;;;16.80;99.90;;;;;;5155508;27;20050;-81
2022/07/23 06:22:16;;;;;;;5.37;3.10;;;17.00;99.90;;;;;;5155605;27;20053;-82
2022/07/23 06:24:41;;;;;;;7.80;3.00;;;17.20;99.90;;;;;;5155492;27;20036;-81
2022/07/23 06:27:07;;;;;;;5.33;3.53;;;17.30;99.90;;;;;;5136656;27;20134;-84
2022/07/23 06:29:33;;;;;;;6.03;3.40;;;17.40;99.90;;;;;;5155194;27;20102;-82
2022/07/23 06:31:58;;;;;;;5.20;3.00;;;17.50;99.90;;;;;;5136848;27;20125;-84
2022/07/23 06:34:24;;;;;;;4.93;2.67;;;17.70;99.90;;;;;;5136679;27;20126;-81
2022/07/23 06:36:50;;;;;;;4.83;3.07;;;18.00;99.90;;;;;;5136665;27;20038;-81
2022/07/23 06:39:15;;;;;;;6.30;2.77;;;17.70;99.90;;;;;;5155114;27;20500;-80
2022/07/23 06:41:41;;;;;;;3.77;2.73;;;17.70;99.90;;;;;;5136893;27;20045;-84
2022/07/23 06:44:07;;;;;;;3.17;2.47;;;18.00;99.90;;;;;;5137075;27;20390;-85
2022/07/23 06:46:33;;;;;;;5.10;2.13;;;17.80;99.90;;;;;;5155259;27;20031;-82
2022/07/23 06:48:59;;;;;;;4.37;2.40;;;17.90;99.90;;;;;;5136491;27;20043;-81
2022/07/23 06:51:25;;;;;;;3.37;2.40;;;18.00;99.90;;;;;;5154998;27;20030;-82
2022/07/23 06:53:50;;;;;;;7.20;2.47;;;18.00;99.90;;;;;;5119641;27;20039;-82
2022/07/23 06:56:16;;;;;;;4.53;2.00;;;18.00;99.90;;;;;;5136669;27;20039;-84
2022/07/23 06:58:42;;;;;;;5.87;1.90;;;18.00;99.90;;;;;;5136567;27;20035;-82
2022/07/23 07:01:07;;;;;;;4.27;2.00;;;18.00;99.90;;;;;;5155233;27;20078;-83
2022/07/23 07:03:33;;;;;;;6.20;1.80;;;18.10;99.90;;;;;;5139574;27;20501;-84
2022/07/23 07:05:58;;;;;;;3.67;1.50;;;18.10;99.90;;;;;;5123398;27;20061;-83
2022/07/23 07:08:24;;;;;;;3.20;1.40;;;18.20;99.90;;;;;;5140837;27;20035;-82
2022/07/23 07:10:50;;;;;;;4.40;1.60;;;18.20;99.90;;;;;;5140601;27;20039;-81
2022/07/23 07:13:16;;;;;;;5.27;1.60;;;18.60;99.90;;;;;;5158751;27;20099;-83
2022/07/23 07:15:41;;;;;;;2.87;1.47;;;18.60;99.90;;;;;;5140592;27;20389;-81
2022/07/23 07:18:07;;;;;;;5.70;1.60;;;18.30;99.90;;;;;;5140080;27;20566;-83
2022/07/23 07:20:33;;;;;;;4.30;1.50;;;18.40;99.90;;;;;;5140593;27;20045;-82
2022/07/23 07:22:58;;;;;;;3.80;1.30;;;18.40;99.90;;;;;;5140304;27;20501;-82
2022/07/23 07:25:24;;;;;;;2.10;1.30;;;18.40;99.90;;;;;;5158875;27;20037;-82
2022/07/23 07:27:49;;;;;;;3.00;1.30;;;18.40;99.90;;;;;;5158898;27;20393;-84
2022/07/23 07:30:15;;;;;;;2.97;1.43;;;18.50;99.90;;;;;;5123328;27;20031;-82
2022/07/23 07:32:41;;;;;;;2.37;1.10;;;18.50;99.90;;;;;;5158727;27;20489;-85
2022/07/23 07:35:07;;;;;;;2.57;1.30;;;18.50;99.90;;;;;;5140290;27;20035;-82
2022/07/23 07:37:33;;;;;;;5.63;1.42;;;18.60;99.90;;;;;;5139870;27;20039;-83
2022/07/23 07:39:58;;;;;;;4.10;1.30;;;18.80;99.90;;;;;;5122847;27;20066;-85
2022/07/23 07:42:24;;;;;;;3.13;1.20;;;18.70;99.90;;;;;;5139975;27;20057;-81
2022/07/23 07:44:50;;;;;;;6.23;1.67;;;18.70;99.90;;;;;;5122776;27;20038;-87
2022/07/23 07:47:15;;;;;;;4.07;1.10;;;18.80;99.90;;;;;;5139941;27;20038;-82
2022/07/23 07:49:42;;;;;;;2.77;1.13;;;18.80;99.90;;;;;;5139992;27;20031;-82
2022/07/23 07:52:08;;;;;;;2.38;1.20;;;18.80;99.90;;;;;;5158409;27;20132;-81
2022/07/23 07:54:34;;;;;;;2.73;1.20;;;18.80;99.90;;;;;;5139596;27;20158;-81
2022/07/23 07:56:59;;;;;;;2.50;0.93;;;18.80;99.90;;;;;;5139711;27;20035;-82
2022/07/23 07:59:25;;;;;;;5.57;1.10;;;18.80;99.90;;;;;;5139608;27;20043;-81
2022/07/23 08:01:51;;;;;;;2.40;1.07;;;18.90;99.90;;;;;;5157456;27;20065;-85
2022/07/23 08:04:17;;;;;;;3.93;1.03;;;19.20;99.90;;;;;;5156240;27;20066;-84
2022/07/23 08:06:42;;;;;;;4.00;0.90;;;19.20;99.90;;;;;;5156204;27;20059;-82
2022/07/23 08:09:08;;;;;;;3.43;0.90;;;19.20;99.90;;;;;;5157619;27;20504;-84
2022/07/23 08:11:34;;;;;;;2.17;0.80;;;19.30;99.90;;;;;;5157697;27;20081;-81
2022/07/23 08:13:59;;;;;;;1.83;1.00;;;19.40;99.90;;;;;;5156740;27;20042;-81
2022/07/23 08:16:25;;;;;;;1.53;0.83;;;19.60;99.90;;;;;;5157839;27;20030;-80
2022/07/23 08:18:50;;;;;;;3.17;1.07;;;19.60;99.90;;;;;;5157733;27;20034;-81
2022/07/23 08:21:16;;;;;;;1.13;0.73;;;19.80;99.90;;;;;;5157821;27;20035;-81
2022/07/23 08:23:41;;;;;;;3.17;0.90;;;19.70;99.90;;;;;;5139040;27;20035;-81
2022/07/23 08:26:07;;;;;;;1.50;0.70;;;19.80;99.90;;;;;;5138933;27;20035;-80
2022/07/23 08:28:33;;;;;;;2.63;0.90;;;19.70;99.90;;;;;;5157644;27;20039;-80
2022/07/23 08:30:59;;;;;;;1.97;0.90;;;19.60;99.90;;;;;;5157652;27;20049;-80
2022/07/23 08:33:25;;;;;;;2.38;1.02;;;19.60;99.90;;;;;;5157441;27;20031;-81
2022/07/23 08:35:52;;;;;;;2.83;1.07;;;19.60;99.90;;;;;;5157512;27;20041;-81
2022/07/23 08:38:20;;;;;;;1.30;0.73;;;19.60;99.90;;;;;;5157351;27;20048;-80
2022/07/23 08:40:49;;;;;;;2.85;1.00;;;19.70;99.90;;;;;;5138751;27;20034;-81
2022/07/23 08:43:17;;;;;;;2.22;0.90;;;19.50;99.90;;;;;;5156833;27;20045;-80
2022/07/23 08:45:45;;;;;;;2.78;0.88;;;19.60;99.90;;;;;;5139124;27;20039;-81
2022/07/23 08:48:16;;;;;;;1.52;0.60;;;19.80;99.90;;;;;;5138715;27;20109;-81
2022/07/23 08:50:48;;;;;;;3.30;0.90;;;19.90;99.90;;;;;;5157254;27;20035;-81
2022/07/23 08:53:14;;;;;;;1.75;0.70;;;20.00;99.90;;;;;;5157128;27;20077;-81
2022/07/23 08:55:42;;;;;;;;;;;20.00;99.90;;;;;;5157513;27;20383;-81
2022/07/23 08:58:08;;;;;;;;;;;20.10;99.90;;;;;;5138932;27;19922;-81
2022/07/23 09:00:34;;;;;;;1.30;0.60;;;20.20;99.90;;;;;;5121475;27;19967;-81
2022/07/23 09:02:59;;;;;;;1.63;0.70;;;20.30;99.90;;;;;;5156993;27;20038;-80
2022/07/23 09:05:25;;;;;;;1.50;0.70;;;20.40;99.90;;;;;;5154959;27;20034;-78
2022/07/23 09:08:12;;;;;;;1.57;0.90;;;20.60;99.90;;;;;;5155387;27;20039;-80
2022/07/23 09:10:51;;;;;;;1.80;0.70;;;20.70;99.90;;;;;;5136989;27;20460;-79
2022/07/23 09:13:33;;;;;;;1.10;0.65;;;20.80;99.90;;;;;;5120279;27;20043;-80
2022/07/23 09:16:02;;;;;;;1.48;0.90;;;20.80;99.90;;;;;;5156715;27;20039;-80
2022/07/23 09:18:39;;;;;;;3.17;0.77;;;20.80;99.90;;;;;;5155830;27;20410;-81
2022/07/23 09:21:31;;;;;;;1.55;0.70;;;20.80;99.90;;;;;;5156348;27;20035;-82
2022/07/23 09:24:04;;;;;;;1.33;0.70;;;20.80;99.90;;;;;;5156287;27;20118;-81
2022/07/23 09:26:37;;;;;;;2.30;0.70;;;20.90;99.90;;;;;;5137380;27;20612;-80
2022/07/23 09:29:15;;;;;;;1.17;0.60;;;21.00;99.90;;;;;;5156063;27;20095;-81
2022/07/23 09:31:55;;;;;;;1.70;0.65;;;21.10;99.90;;;;;;5155777;27;20091;-80
2022/07/23 09:34:26;;;;;;;1.00;0.60;;;21.10;99.90;;;;;;5155845;27;20486;-81
2022/07/23 09:36:57;;;;;;;1.13;0.60;;;21.10;99.90;;;;;;5155903;27;20042;-82
2022/07/23 09:39:32;;;;;;;2.58;0.88;;;21.10;99.90;;;;;;5155435;27;20039;-82
2022/07/23 09:42:11;;;;;;;1.92;0.75;;;21.20;99.90;;;;;;5155826;27;20379;-80
2022/07/23 09:44:45;;;;;;;1.60;0.70;;;20.90;99.90;;;;;;5150803;27;20043;-79
2022/07/23 09:47:10;;;;;;;2.50;0.70;;;20.70;99.90;;;;;;5146316;27;20027;-80
2022/07/23 09:49:36;;;;;;;2.57;0.80;;;20.60;99.90;;;;;;5155858;27;20039;-82
2022/07/23 09:52:02;;;;;;;2.13;0.70;;;20.60;99.90;;;;;;5155482;27;20042;-81
2022/07/23 09:54:37;;;;;;;1.27;0.63;;;20.60;99.90;;;;;;5155140;27;20034;-81
2022/07/23 09:57:13;;;;;;;1.08;0.60;;;20.60;99.90;;;;;;5155310;27;20046;-81
2022/07/23 09:59:39;;;;;;;2.53;0.60;;;20.50;99.90;;;;;;5155459;27;20042;-81
2022/07/23 10:02:07;;;;;;;1.92;0.80;;;20.60;99.90;;;;;;5137228;27;20048;-80
2022/07/23 10:04:34;;;;;;;1.48;0.57;;;20.70;99.90;;;;;;5136749;27;20478;-75
2022/07/23 10:07:02;;;;;;;2.08;0.77;;;20.80;99.90;;;;;;5137053;27;20039;-82
2022/07/23 10:09:34;;;;;;;1.35;0.75;;;20.90;99.90;;;;;;5136599;27;20038;-78
2022/07/23 10:12:14;;;;;;;2.63;0.70;;;20.80;99.90;;;;;;5155367;27;20055;-80
2022/07/23 10:14:40;;;;;;;2.03;0.77;;;20.70;99.90;;;;;;5155469;27;20039;-78
2022/07/23 10:17:06;;;;;;;2.70;0.82;;;20.70;99.90;;;;;;5155429;27;20045;-79
2022/07/23 10:19:32;;;;;;;1.95;0.80;;;20.80;99.90;;;;;;5135270;27;20050;-79
2022/07/23 10:22:03;;;;;;;4.23;0.80;;;20.90;99.90;;;;;;5134476;27;20479;-79
2022/07/23 10:24:55;;;;;;;2.85;0.70;;;20.90;99.90;;;;;;5134448;27;20047;-78
2022/07/23 10:27:39;;;;;;;0.82;0.60;;;20.90;99.90;;;;;;5130152;27;20100;-79
2022/07/23 10:30:33;;;;;;;1.77;0.60;;;21.00;99.90;;;;;;5134144;27;20550;-80
2022/07/23 10:33:32;;;;;;;1.88;0.70;;;21.10;99.90;;;;;;5102768;28;20055;-80
2022/07/23 10:36:11;;;;;;;1.38;0.70;;;21.40;99.90;;;;;;5134434;28;20043;-79
2022/07/23 10:38:55;;;;;;;2.40;0.70;;;21.70;99.90;;;;;;5140640;27;20435;-79
2022/07/23 10:41:35;;;;;;;1.77;0.70;;;21.70;99.90;;;;;;5141347;27;20160;-78
2022/07/23 10:44:13;;;;;;;1.65;0.80;;;21.90;99.90;;;;;;5141246;27;20031;-83
2022/07/23 10:47:01;;;;;;;0.80;0.60;;;22.10;99.90;;;;;;5141395;27;20176;-79
2022/07/23 10:49:29;;;;;;;1.25;0.70;;;22.10;99.90;;;;;;5141055;27;20043;-79
2022/07/23 10:52:13;;;;;;;1.67;0.70;;;22.20;99.90;;;;;;5140850;27;20504;-79
2022/07/23 10:54:39;;;;;;;2.08;0.80;;;22.30;99.90;;;;;;5141275;27;20042;-79
2022/07/23 10:57:11;;;;;;;1.25;0.60;;;22.40;99.90;;;;;;5141235;27;20050;-79
2022/07/23 11:00:11;;;;;;;1.52;0.80;;;22.50;99.90;;;;;;5140838;27;20391;-79
2022/07/23 11:02:39;;;;;;;1.67;0.77;;;22.70;99.40;;;;;;5141241;27;20039;-79
2022/07/23 11:05:10;;;;;;;1.92;0.80;;;22.80;99.90;;;;;;5141042;27;20038;-80
2022/07/23 11:07:56;;;;;;;2.88;0.70;;;22.90;99.70;;;;;;5140628;27;20035;-81
2022/07/23 11:10:32;;;;;;;2.67;0.60;;;22.90;98.80;;;;;;5140366;27;20088;-83
2022/07/23 11:13:25;;;;;;;1.38;0.80;;;23.00;98.90;;;;;;5140144;27;20080;-79
2022/07/23 11:16:06;;;;;;;2.55;0.70;;;22.90;98.60;;;;;;5141228;27;20039;-78
2022/07/23 11:18:44;;;;;;;1.33;0.60;;;22.90;99.00;;;;;;5140998;27;20042;-80
2022/07/23 11:23:56;;;;;;;3.05;0.80;;;23.10;98.90;;;;;;5141044;27;20083;-79
2022/07/23 11:26:40;;;;;;;1.10;0.70;;;23.10;98.00;;;;;;5140859;27;20038;-79
2022/07/23 11:29:28;;;;;;;2.40;0.90;;;23.20;97.30;;;;;;5140806;27;20043;-81
2022/07/23 11:31:55;;;;;;;1.40;0.73;;;23.40;98.20;;;;;;5141080;27;20122;-76
2022/07/23 11:34:36;;;;;;;1.80;0.70;;;23.50;99.10;;;;;;5141003;27;20039;-77
2022/07/23 11:37:05;;;;;;;1.67;0.95;;;23.60;98.90;;;;;;5122818;27;20043;-79
2022/07/23 11:39:32;;;;;;;1.73;0.70;;;23.70;98.10;;;;;;5140862;27;20039;-84
2022/07/23 11:41:59;;;;;;;1.60;0.80;;;23.60;98.10;;;;;;5122491;27;20035;-80
2022/07/23 11:44:31;;;;;;;1.83;1.00;;;23.60;97.60;;;;;;5140988;27;20035;-81
2022/07/23 11:47:01;;;;;;;2.35;0.80;;;23.60;97.80;;;;;;5140888;27;20035;-81
2022/07/23 11:49:28;;;;;;;2.47;1.00;;;23.60;98.60;;;;;;5138462;27;20039;-80
2022/07/23 11:52:06;;;;;;;1.70;0.80;;;23.70;98.40;;;;;;5119047;27;20075;-81
2022/07/23 11:54:33;;;;;;;1.70;0.80;;;23.80;97.70;;;;;;5119005;27;20508;-83
2022/07/23 11:57:00;;;;;;;1.80;1.02;;;23.80;98.00;;;;;;5119286;27;20038;-78
2022/07/23 11:59:28;;;;;;;1.77;0.85;;;23.60;97.10;;;;;;5137387;27;20043;-83
2022/07/23 12:02:02;;;;;;;1.98;0.98;;;23.60;97.90;;;;;;5119294;27;20039;-83
2022/07/23 12:04:40;;;;;;;1.83;0.90;;;23.60;98.00;;;;;;5101312;27;20115;-83
2022/07/23 12:07:25;;;;;;;1.38;0.82;;;23.60;98.70;;;;;;5137319;27;20035;-83
2022/07/23 12:09:51;;;;;;;1.15;0.80;;;23.60;97.60;;;;;;5137121;27;20046;-84
2022/07/23 12:12:16;;;;;;;2.00;0.97;;;23.90;98.50;;;;;;5137261;27;20043;-84
2022/07/23 12:15:09;;;;;;;3.23;1.10;;;24.00;98.20;;;;;;5101518;27;20070;-84
2022/07/23 12:17:37;;;;;;;1.92;0.80;;;24.00;97.30;;;;;;5133488;27;20086;-84
2022/07/23 12:20:05;;;;;;;3.15;1.00;;;24.00;97.80;;;;;;5118505;27;20402;-84
2022/07/23 12:22:49;;;;;;;1.83;0.70;;;24.00;98.20;;;;;;5118493;27;20084;-84
2022/07/23 12:25:17;;;;;;;2.25;0.93;;;24.10;97.60;;;;;;5136983;27;20031;-84
2022/07/23 12:27:43;;;;;;;3.40;1.20;;;24.20;97.20;;;;;;5118350;27;20475;-84
2022/07/23 12:30:44;;;;;;;1.48;0.80;;;24.10;97.20;;;;;;5118262;27;20559;-84
2022/07/23 12:33:12;;;;;;;3.60;1.00;;;24.10;98.70;;;;;;5092064;27;20089;-84
2022/07/23 12:35:43;;;;;;;2.35;1.00;;;24.20;98.20;;;;;;5136793;27;20066;-84
2022/07/23 12:38:11;;;;;;;1.60;1.00;;;24.10;98.00;;;;;;5118130;27;20039;-85
2022/07/23 12:40:53;;;;;;;2.03;0.98;;;24.10;97.00;;;;;;5118147;27;20065;-87
2022/07/23 12:43:26;;;;;;;2.08;1.05;;;24.00;98.20;;;;;;5117920;27;20509;-86
2022/07/23 12:46:02;;;;;;;2.45;0.98;;;23.80;98.00;;;;;;5118521;27;20383;-82
2022/07/23 12:48:36;;;;;;;3.38;1.10;;;23.80;98.20;;;;;;5136526;27;20039;-83
2022/07/23 12:51:04;;;;;;;1.98;1.08;;;23.90;98.00;;;;;;5136378;27;20042;-82
2022/07/23 12:53:32;;;;;;;2.97;1.20;;;24.00;98.20;;;;;;5136335;27;20039;-82
2022/07/23 12:56:20;;;;;;;2.55;1.08;;;24.00;98.10;;;;;;5124608;27;20046;-82
2022/07/23 12:59:09;;;;;;;1.73;1.00;;;24.20;98.40;;;;;;5135316;27;20051;-83
2022/07/23 13:01:40;;;;;;;2.55;1.10;;;24.30;97.70;;;;;;5117516;27;20127;-85